createdAt,value
2023-02-27T00:00:42.116Z,24.33
2023-02-27T00:01:42.186Z,24.30
2023-02-27T00:02:42.277Z,24.28
2023-02-27T00:03:42.326Z,24.28
2023-02-27T00:04:42.391Z,24.26
2023-02-27T00:05:42.458Z,24.30
2023-02-27T00:06:42.509Z,24.28
2023-02-27T00:07:42.566Z,24.24
2023-02-27T00:08:42.544Z,24.30
2023-02-27T00:09:42.525Z,24.31
2023-02-27T00:10:42.546Z,24.31
2023-02-27T00:11:42.621Z,24.28
2023-02-27T00:12:42.667Z,24.29
2023-02-27T00:13:42.707Z,24.24
2023-02-27T00:14:42.753Z,24.30
2023-02-27T00:15:42.828Z,24.24
2023-02-27T00:16:42.827Z,24.30
2023-02-27T00:17:42.852Z,24.26
2023-02-27T00:18:42.911Z,24.27
2023-02-27T00:19:42.975Z,24.30
2023-02-27T00:20:43.025Z,24.28
2023-02-27T00:21:43.079Z,24.28
2023-02-27T01:19:45.916Z,24.38
2023-02-27T01:20:45.969Z,24.40
2023-02-27T01:22:46.088Z,24.31
2023-02-27T01:23:46.132Z,24.39
2023-02-27T01:24:46.187Z,24.37
2023-02-27T01:25:46.212Z,24.35
2023-02-27T01:30:46.518Z,24.35
2023-02-27T01:31:46.590Z,24.31
2023-02-27T01:32:46.653Z,24.35
2023-02-27T01:33:46.616Z,24.38
2023-02-27T01:34:46.693Z,24.37
2023-02-27T01:35:46.741Z,24.38
2023-02-27T01:36:46.815Z,24.41
2023-02-27T01:37:46.850Z,24.38
2023-02-27T01:38:46.849Z,24.41
2023-02-27T01:39:46.858Z,24.39
2023-02-27T01:40:46.885Z,24.41
2023-02-27T01:41:46.916Z,24.37
2023-02-27T01:42:46.980Z,24.41
2023-02-27T01:43:47.058Z,24.42
2023-02-27T01:55:47.671Z,24.37
2023-02-27T01:56:47.684Z,24.40
2023-02-27T01:57:47.712Z,24.38
2023-02-27T01:58:47.712Z,24.39
2023-02-27T01:59:47.730Z,24.41
2023-02-27T02:00:47.770Z,24.39
2023-02-27T02:01:47.736Z,24.39
2023-02-27T02:02:47.712Z,24.37
2023-02-27T02:03:47.710Z,24.34
2023-02-27T02:04:47.713Z,24.41
2023-02-27T02:05:47.716Z,24.38
2023-02-27T02:06:47.715Z,24.42
2023-02-27T02:07:47.712Z,24.38
2023-02-27T02:08:47.744Z,24.44
2023-02-27T02:09:47.796Z,24.42
2023-02-27T02:10:47.822Z,24.39
2023-02-27T02:11:47.868Z,24.38
2023-02-27T02:12:47.910Z,24.42
2023-02-27T02:13:47.969Z,24.44
2023-02-27T02:14:47.999Z,24.38
2023-02-27T02:15:48.043Z,24.40
2023-02-27T02:16:48.128Z,24.41
2023-02-27T02:17:48.122Z,24.40
2023-02-27T02:18:48.139Z,24.45
2023-02-27T02:19:48.213Z,24.39
2023-02-27T02:20:48.213Z,24.45
2023-02-27T02:21:48.228Z,24.43
2023-02-27T02:22:48.254Z,24.44
2023-02-27T02:23:48.305Z,24.42
2023-02-27T02:24:48.349Z,24.42
2023-02-27T02:25:48.384Z,24.43
2023-02-27T02:26:48.417Z,24.43
2023-02-27T02:27:48.449Z,24.40
2023-02-27T02:28:48.512Z,24.43
2023-02-27T02:29:48.575Z,24.42
2023-02-27T02:30:48.701Z,24.44
2023-02-27T02:31:48.818Z,24.45
2023-02-27T02:32:48.636Z,24.45
2023-02-27T02:33:48.659Z,24.45
2023-02-27T02:34:48.680Z,24.45
2023-02-27T02:35:48.707Z,24.45
2023-02-27T02:36:48.744Z,24.48
2023-02-27T02:37:48.768Z,24.46
2023-02-27T02:38:48.779Z,24.49
2023-02-27T02:39:48.791Z,24.50
2023-02-27T02:40:48.827Z,24.46
2023-02-27T02:41:48.891Z,24.45
2023-02-27T02:42:48.913Z,24.51
2023-02-27T02:43:48.953Z,24.48
2023-02-27T02:44:49.015Z,24.48
2023-02-27T02:45:49.058Z,24.51
2023-02-27T02:46:49.061Z,24.49
2023-02-27T02:47:49.077Z,24.48
2023-02-27T02:48:49.105Z,24.46
2023-02-27T02:49:49.122Z,24.52
2023-02-27T02:50:49.175Z,24.46
2023-02-27T02:51:49.237Z,24.46
2023-02-27T02:52:49.293Z,24.49
2023-02-27T02:53:49.293Z,24.51
2023-02-27T02:54:49.332Z,24.49
2023-02-27T02:55:49.344Z,24.50
2023-02-27T02:56:49.404Z,24.50
2023-02-27T02:57:49.421Z,24.50
2023-02-27T02:58:49.477Z,24.50
2023-02-27T02:59:49.524Z,24.48
2023-02-27T03:00:49.537Z,24.46
2023-02-27T03:01:49.572Z,24.47
2023-02-27T03:02:49.584Z,24.51
2023-02-27T03:03:49.617Z,24.48
2023-02-27T03:04:49.647Z,24.49
2023-02-27T03:05:49.704Z,24.49
2023-02-27T03:06:49.737Z,24.46
2023-02-27T03:07:49.846Z,24.50
2023-02-27T03:08:49.756Z,24.51
2023-02-27T03:09:49.773Z,24.50
2023-02-27T03:10:49.803Z,24.46
2023-02-27T03:11:49.813Z,24.42
2023-02-27T03:12:49.816Z,24.49
2023-02-27T05:36:55.937Z,24.28
2023-02-27T05:37:55.996Z,24.28
2023-02-27T05:38:56.042Z,24.29
2023-02-27T05:39:56.094Z,24.30
2023-02-27T05:40:56.148Z,24.26
2023-02-27T05:41:56.206Z,24.28
2023-02-27T05:42:56.256Z,24.26
2023-02-27T05:43:56.303Z,24.30
2023-02-27T05:44:56.366Z,24.28
2023-02-27T05:45:56.423Z,24.29
2023-02-27T05:46:56.468Z,24.29
2023-02-27T05:47:56.521Z,24.29
2023-02-27T05:48:56.583Z,24.26
2023-02-27T05:49:56.633Z,24.28
2023-02-27T05:50:56.683Z,24.29
2023-02-27T05:51:57.262Z,24.29
2023-02-27T05:52:56.790Z,24.32
2023-02-27T05:53:56.844Z,24.33
2023-02-27T05:54:56.902Z,24.33
2023-02-27T06:04:57.442Z,24.34
2023-02-27T06:05:57.513Z,24.29
2023-02-27T06:06:57.553Z,24.35
2023-02-27T06:07:57.612Z,24.37
2023-02-27T06:08:57.678Z,24.32
2023-02-27T06:09:57.715Z,24.37
2023-02-27T06:10:57.768Z,24.37
2023-02-27T06:11:57.830Z,24.36
2023-02-27T06:12:57.899Z,24.37
2023-02-27T06:13:57.938Z,24.36
2023-02-27T06:14:58.004Z,24.39
2023-02-27T06:15:58.061Z,24.35
2023-02-27T06:16:58.131Z,24.43
2023-02-27T06:20:58.322Z,24.40
2023-02-27T09:30:06.062Z,24.15
2023-02-27T09:41:05.949Z,24.20
2023-02-27T09:42:05.987Z,24.27
2023-02-27T09:43:06.182Z,24.24
2023-02-27T09:44:06.087Z,24.24
2023-02-27T09:45:06.278Z,24.26
2023-02-27T09:46:06.236Z,24.32
2023-02-27T09:47:06.294Z,24.29
2023-02-27T09:48:06.254Z,24.29
2023-02-27T09:49:06.296Z,24.29
2023-02-27T09:50:06.374Z,24.26
2023-02-27T09:51:06.382Z,24.22
2023-02-27T09:52:06.425Z,24.26
2023-02-27T09:53:06.464Z,24.34
2023-02-27T09:54:06.514Z,24.30
2023-02-27T09:55:06.555Z,24.29
2023-02-27T09:56:06.663Z,24.32
2023-02-27T09:57:06.649Z,24.32
2023-02-27T09:58:06.714Z,24.29
2023-02-27T09:59:06.740Z,24.32
2023-02-27T10:00:06.785Z,24.32
2023-02-27T10:01:06.829Z,24.36
2023-02-27T10:02:06.914Z,24.35
2023-02-27T10:03:06.968Z,24.39
2023-02-27T10:04:07.591Z,24.39
2023-02-27T10:05:07.005Z,24.36
2023-02-27T10:06:07.309Z,24.35
2023-02-27T10:07:07.084Z,24.40
2023-02-27T10:08:07.128Z,24.37
2023-02-27T10:09:07.167Z,24.35
2023-02-27T10:10:07.220Z,24.33
2023-02-27T10:11:07.246Z,24.35
2023-02-27T10:12:07.637Z,24.39
2023-02-27T10:13:07.326Z,24.37
2023-02-27T10:14:07.363Z,24.32
2023-02-27T10:15:08.024Z,24.32
2023-02-27T10:16:07.441Z,24.39
2023-02-27T10:17:07.537Z,24.39
2023-02-27T10:18:20.164Z,24.35
2023-02-27T10:19:07.506Z,24.38
2023-02-27T10:20:07.465Z,24.39
2023-02-27T10:21:07.462Z,24.40
2023-02-27T10:22:07.443Z,24.36
2023-02-27T10:23:07.956Z,24.43
2023-02-27T10:24:07.760Z,24.46
2023-02-27T10:25:18.116Z,24.40
2023-02-27T10:26:08.341Z,24.43
2023-02-27T10:27:07.377Z,24.41
2023-02-27T10:28:07.291Z,24.46
2023-02-27T10:29:07.279Z,24.43
2023-02-27T10:30:07.520Z,24.39
2023-02-27T10:31:07.334Z,24.41
2023-02-27T10:32:07.289Z,24.40
2023-02-27T10:33:07.203Z,24.33
2023-02-27T10:34:07.193Z,24.40
2023-02-27T10:35:07.167Z,24.35
2023-02-27T10:36:07.172Z,24.33
2023-02-27T10:37:07.138Z,24.32
2023-02-27T10:38:07.176Z,24.28
2023-02-27T10:39:07.243Z,24.28
2023-02-27T10:40:07.245Z,24.27
2023-02-27T10:41:07.276Z,24.21
2023-02-27T10:42:08.046Z,24.26
2023-02-27T10:43:07.343Z,24.22
2023-02-27T10:44:07.382Z,24.22
2023-02-27T10:45:07.418Z,24.19
2023-02-27T10:46:07.476Z,24.19
2023-02-27T10:47:07.478Z,24.21
2023-02-27T10:48:07.513Z,24.22
2023-02-27T10:49:07.541Z,24.24
2023-02-27T10:50:07.577Z,24.30
2023-02-27T10:51:07.614Z,24.29
2023-02-27T10:52:07.655Z,24.32
2023-02-27T10:53:08.046Z,24.30
2023-02-27T10:54:07.716Z,24.29
2023-02-27T10:55:07.758Z,24.29
2023-02-27T10:56:07.784Z,24.24
2023-02-27T10:57:07.803Z,24.30
2023-02-27T10:58:07.838Z,24.21
2023-02-27T10:59:07.889Z,24.18
2023-02-27T11:00:07.929Z,24.17
2023-02-27T11:01:08.200Z,24.22
2023-02-27T11:02:08.007Z,24.18
2023-02-27T11:03:08.027Z,24.17
2023-02-27T11:04:09.085Z,24.15
2023-02-27T11:05:08.094Z,24.17
2023-02-27T11:06:08.127Z,24.14
2023-02-27T11:07:08.158Z,24.11
2023-02-27T11:08:08.191Z,24.14
2023-02-27T11:09:08.223Z,24.15
2023-02-27T11:10:08.262Z,24.18
2023-02-27T11:11:08.298Z,24.16
2023-02-27T11:12:08.330Z,24.07
2023-02-27T11:13:08.365Z,24.07
2023-02-27T11:14:08.396Z,24.07
2023-02-27T11:15:08.443Z,24.10
2023-02-27T11:16:08.501Z,24.13
2023-02-27T11:17:08.499Z,24.19
2023-02-27T11:18:08.522Z,24.13
2023-02-27T11:19:08.560Z,24.16
2023-02-27T11:20:08.597Z,24.18
2023-02-27T11:21:08.641Z,24.16
2023-02-27T11:22:08.672Z,24.20
2023-02-27T11:23:08.708Z,24.19
2023-02-27T11:24:08.748Z,24.27
2023-02-27T11:25:08.816Z,24.18
2023-02-27T11:26:08.838Z,24.24
2023-02-27T11:27:08.850Z,24.24
2023-02-27T11:28:08.891Z,24.22
2023-02-27T11:29:08.928Z,24.24
2023-02-27T11:30:08.958Z,24.22
2023-02-27T11:31:09.029Z,24.24
2023-02-27T11:32:09.040Z,24.25
2023-02-27T11:33:09.053Z,24.27
2023-02-27T11:34:09.082Z,24.20
2023-02-27T11:35:09.119Z,24.25
2023-02-27T11:36:09.197Z,24.17
2023-02-27T11:37:09.190Z,24.20
2023-02-27T11:38:09.241Z,24.21
2023-02-27T11:39:09.274Z,24.20
2023-02-27T11:40:09.308Z,24.17
2023-02-27T11:41:09.338Z,24.21
2023-02-27T11:42:09.362Z,24.19
2023-02-27T11:43:09.400Z,24.21
2023-02-27T11:44:09.425Z,24.16
2023-02-27T11:45:09.464Z,24.11
2023-02-27T11:46:47.341Z,24.17
2023-02-27T11:47:10.489Z,24.20
2023-02-27T11:48:09.443Z,24.16
2023-02-27T11:49:09.417Z,24.17
2023-02-27T11:50:09.396Z,24.17
2023-02-27T11:51:09.382Z,24.19
2023-02-27T11:52:09.367Z,24.20
2023-02-27T11:53:09.335Z,24.23
2023-02-27T11:54:09.316Z,24.14
2023-02-27T11:55:09.293Z,24.25
2023-02-27T11:56:09.279Z,24.50
2023-02-27T11:57:09.259Z,25.05
2023-02-27T11:58:09.265Z,25.21
2023-02-27T11:59:10.058Z,25.05
2023-02-27T12:00:09.341Z,25.71
2023-02-27T12:01:09.360Z,25.53
2023-02-27T12:02:12.075Z,25.54
2023-02-27T12:03:09.384Z,25.71
2023-02-27T12:04:09.375Z,25.83
2023-02-27T16:11:15.949Z,28.05
2023-02-27T16:12:15.987Z,28.01
2023-02-27T16:13:16.041Z,28.00
2023-02-27T16:14:16.082Z,28.00
2023-02-27T16:15:16.133Z,27.97
2023-02-27T16:16:16.181Z,28.05
2023-02-27T16:17:16.217Z,28.01
2023-02-27T16:18:16.268Z,28.04
2023-02-27T16:19:16.316Z,28.08
2023-02-27T16:20:16.356Z,28.11
2023-02-27T16:21:16.398Z,28.05
2023-02-27T16:22:16.462Z,28.04
2023-02-27T16:23:16.495Z,28.02
2023-02-27T16:24:16.541Z,28.06
2023-02-27T16:25:17.136Z,28.15
2023-02-27T16:26:16.652Z,28.16
2023-02-27T16:27:16.698Z,28.16
2023-02-27T16:28:16.754Z,28.09
2023-02-27T16:29:16.809Z,28.06
2023-02-27T16:30:16.868Z,28.19
2023-02-27T16:31:16.918Z,28.19
2023-02-27T16:32:17.132Z,28.16
2023-02-27T16:33:17.023Z,28.17
2023-02-27T16:34:17.073Z,28.19
2023-02-27T16:35:17.114Z,28.09
2023-02-27T16:36:17.130Z,28.14
2023-02-27T16:37:17.155Z,28.22
2023-02-27T16:38:17.155Z,28.23
2023-02-27T16:39:17.167Z,28.23
2023-02-27T16:40:17.260Z,28.10
2023-02-27T16:41:17.391Z,28.22
2023-02-27T16:42:17.215Z,28.23
2023-02-27T16:43:17.205Z,28.17
2023-02-27T16:44:17.202Z,28.27
2023-02-27T16:45:17.218Z,28.30
2023-02-27T16:46:17.258Z,28.25
2023-02-27T16:47:17.230Z,28.42
2023-02-27T16:48:17.249Z,28.28
2023-02-27T16:49:20.008Z,28.32
2023-02-27T16:50:17.230Z,28.32
2023-02-27T16:51:17.214Z,28.31
2023-02-27T16:52:17.198Z,28.42
2023-02-27T16:53:17.191Z,28.34
2023-02-27T16:54:17.169Z,28.35
2023-02-27T16:55:17.150Z,28.46
2023-02-27T16:56:19.637Z,28.38
2023-02-27T16:57:18.113Z,28.46
2023-02-27T16:58:17.102Z,28.49
2023-02-27T16:59:17.084Z,28.48
2023-02-27T17:00:17.068Z,28.48
2023-02-27T17:01:17.201Z,28.60
2023-02-27T17:02:17.018Z,28.64
2023-02-27T17:03:16.994Z,28.67
2023-02-27T17:04:25.616Z,28.70
2023-02-27T17:05:17.964Z,28.57
2023-02-27T17:06:16.951Z,28.64
2023-02-27T17:07:16.960Z,28.57
2023-02-27T17:08:16.957Z,28.55
2023-02-27T17:09:16.918Z,28.54
2023-02-27T17:10:16.898Z,28.58
2023-02-27T17:11:16.877Z,28.53
2023-02-27T17:12:16.860Z,28.52
2023-02-27T17:28:16.752Z,28.57
2023-02-27T17:29:16.763Z,28.61
2023-02-27T17:30:16.778Z,28.58
2023-02-27T17:31:16.780Z,28.60
2023-02-27T17:32:16.873Z,28.53
2023-02-27T17:33:16.823Z,28.63
2023-02-27T17:34:16.853Z,28.60
2023-02-27T17:35:16.857Z,28.64
2023-02-27T17:43:16.961Z,28.60
2023-02-27T18:01:17.281Z,28.71
2023-02-27T18:02:17.259Z,28.65
2023-02-27T18:03:17.260Z,28.62
2023-02-27T18:04:17.277Z,28.65
2023-02-27T18:05:17.351Z,28.67
2023-02-27T18:06:17.318Z,28.65
2023-02-27T18:08:17.332Z,28.71
2023-02-27T18:09:17.357Z,28.71
2023-02-27T18:10:17.373Z,28.65
2023-02-27T18:11:17.383Z,28.62
2023-02-27T18:12:17.398Z,28.62
2023-02-27T18:27:17.606Z,28.69
2023-02-27T19:05:18.214Z,28.63
2023-02-27T19:06:18.239Z,28.56
2023-02-27T19:07:18.241Z,28.62
2023-02-27T19:08:18.273Z,28.63
2023-02-27T19:09:18.682Z,28.55
2023-02-27T19:10:18.302Z,28.58
2023-02-27T19:11:18.330Z,28.56
2023-02-27T19:12:18.336Z,28.59
2023-02-27T19:13:18.363Z,28.58
2023-02-27T19:14:18.380Z,28.56
2023-02-27T19:15:18.385Z,28.52
2023-02-27T19:16:18.420Z,28.54
2023-02-27T19:17:18.429Z,28.51
2023-02-27T19:18:18.435Z,28.49
2023-02-27T19:19:18.452Z,28.51
2023-02-27T19:20:18.475Z,28.58
2023-02-27T19:21:18.503Z,28.52
2023-02-27T19:22:18.514Z,28.54
2023-02-27T19:23:18.543Z,28.52
2023-02-27T19:24:18.544Z,28.48
2023-02-27T19:25:18.573Z,28.48
2023-02-27T19:26:18.603Z,28.45
2023-02-27T19:27:18.615Z,28.48
2023-02-27T19:28:18.634Z,28.48
2023-02-27T19:29:18.665Z,28.49
2023-02-27T19:30:18.689Z,28.48
2023-02-27T19:31:18.725Z,28.44
2023-02-27T19:32:18.762Z,28.42
2023-02-27T19:33:18.752Z,28.45
2023-02-27T19:34:18.775Z,28.42
2023-02-27T19:35:18.793Z,28.45
2023-02-27T19:37:18.905Z,28.48
2023-02-27T19:38:18.969Z,28.47
2023-02-27T19:39:19.010Z,28.42
2023-02-27T19:40:19.057Z,28.42
2023-02-27T20:49:22.948Z,27.94
2023-02-27T20:50:22.995Z,27.99
2023-02-27T20:51:23.064Z,27.97
2023-02-27T20:52:23.122Z,27.95
2023-02-27T20:53:24.862Z,27.95
2023-02-27T20:54:23.173Z,27.96
2023-02-27T20:55:23.166Z,27.97
2023-02-27T20:56:23.154Z,27.95
2023-02-27T20:57:23.166Z,27.91
2023-02-27T20:58:23.128Z,27.91
2023-02-27T20:59:23.123Z,27.95
2023-02-27T23:40:25.934Z,27.17
2023-02-27T23:41:25.975Z,27.16
2023-02-27T23:42:26.011Z,27.14
2023-02-27T23:43:26.018Z,27.11
2023-02-27T23:44:26.039Z,27.13
2023-02-27T23:45:26.118Z,27.13
2023-02-27T23:46:26.122Z,27.17
2023-02-27T23:47:26.163Z,27.14
2023-02-27T23:48:26.223Z,27.14
2023-02-27T23:49:26.260Z,27.14
2023-02-27T23:50:26.269Z,27.10
2023-02-27T23:51:28.450Z,27.14
2023-02-27T23:52:26.318Z,27.11
2023-02-27T23:53:26.299Z,27.09
2023-02-27T23:54:26.287Z,27.10
2023-02-27T23:55:26.284Z,27.09
2023-02-27T23:56:26.273Z,27.10
2023-02-27T23:57:26.266Z,27.05
2023-02-27T23:58:26.263Z,27.11
2023-02-27T23:59:26.246Z,27.07
